Mckinley Sea — WDE5024 — position and weather

sailwx.info

Track history (hours):
 
Tides and Currents Weather Stations Pressure Air Temp Water Temp Dewpoint Dewpoint Depression Visibility Wind Speed Wind Dir Waves Ship Positions

Mckinley Sea

Owner: Kirby Offshore Marine, LLC, Staten Island, NY. More information available from US FCC via Universal Licensing System and Coast Guard Vessel Documentation Center.

Last reported at 2015-Jul-04 14:06 UTC. Time now 2015-Jul-05 15:05 UTC.
Position N 40°31' W 073°59'.

Length 46 m; draft 7 m.

Type: Towing. MMSI: 367360980.

Date/timePositionNaut miles runAvg speedWind from/ knotsBaromVisibWave heightAir tempDewpointWater temp
2015-Jul-04 14:06N 40°31' W 073°59'3 5.5
2015-Jul-04 13:33N 40°33' W 074°02'6 6.1
2015-Jul-04 12:33N 40°39' W 074°04'5 5.4
2015-Jul-04 11:33N 40°39' W 074°11'6 5.6
2015-Jul-04 10:33N 40°33' W 074°14'1 1.0
2015-Jul-04 09:33N 40°33' W 074°15'0 0.0
2015-Jul-04 06:33N 40°33' W 074°15'0 0.0
2015-Jul-04 05:33N 40°33' W 074°15'0 0.0
2015-Jul-04 04:29N 40°33' W 074°15'0 0.0
2015-Jul-04 03:31N 40°33' W 074°15'0 0.0
2015-Jul-03 21:24N 40°33' W 074°15'0 0.0
2015-Jul-03 20:28N 40°33' W 074°15'0 0.0
2015-Jul-03 13:15N 40°33' W 074°15'0 0.0
2015-Jul-03 12:29N 40°33' W 074°15'3 3.0
2015-Jul-03 11:24N 40°29' W 074°15'6 2.0
2015-Jul-03 08:33N 40°29' W 074°07'0 0.1
2015-Jul-03 07:33N 40°29' W 074°07'0 0.0
2015-Jul-03 06:28N 40°29' W 074°07'0 0.0
2015-Jul-03 02:33N 40°29' W 074°07'0 0.1
2015-Jul-03 00:26N 40°29' W 074°08'0 0.0
2015-Jul-02 23:33N 40°29' W 074°08'0 0.0
2015-Jul-02 22:33N 40°29' W 074°08'2 1.9
2015-Jul-02 21:27N 40°30' W 074°10'4 1.9
2015-Jul-02 19:14N 40°30' W 074°15'0 0.0
2015-Jul-02 18:33N 40°30' W 074°15'0 0.0
2015-Jul-02 17:31N 40°30' W 074°15'0 0.1
2015-Jul-02 16:24N 40°30' W 074°15'7 7.3
2015-Jul-02 15:26N 40°29' W 074°06'5 5.9
2015-Jul-02 14:33N 40°34' W 074°02'7 6.6
2015-Jul-02 13:33N 40°40' W 074°02'0 0.0
2015-Jul-02 12:33N 40°40' W 074°02'0 0.2
2015-Jul-02 11:33N 40°40' W 074°02'0 0.1
2015-Jul-02 10:33N 40°40' W 074°02'0 0.0
2015-Jul-02 09:33N 40°40' W 074°02'0 0.0
2015-Jul-02 08:33N 40°40' W 074°02'0 0.0
2015-Jul-02 07:33N 40°40' W 074°02'0 0.0
2015-Jul-02 06:33N 40°40' W 074°02'0 0.0
2015-Jul-02 05:33N 40°40' W 074°02'0 0.0
2015-Jul-02 04:33N 40°40' W 074°02'0 0.0
2015-Jul-02 03:33N 40°40' W 074°02'0 0.2
2015-Jul-02 02:34N 40°40' W 074°02'0 0.0
2015-Jul-02 01:33N 40°40' W 074°02'0 0.1
2015-Jul-02 00:33N 40°40' W 074°02'0 0.0
2015-Jul-01 23:33N 40°40' W 074°02'0 0.0
2015-Jul-01 22:33N 40°40' W 074°02'0 0.1
2015-Jul-01 21:33N 40°40' W 074°02'0 0.1
2015-Jul-01 20:33N 40°40' W 074°02'0 0.1
2015-Jul-01 19:33N 40°40' W 074°02'0 0.0
2015-Jul-01 18:33N 40°40' W 074°02'5 4.9
2015-Jul-01 17:33N 40°38' W 074°09'1 1.0
2015-Jul-01 16:33N 40°38' W 074°10'0 0.0
2015-Jul-01 15:33N 40°38' W 074°10'0 0.1
2015-Jul-01 14:33N 40°39' W 074°10'0 0.1
2015-Jul-01 13:33N 40°39' W 074°10'0 0.0
2015-Jul-01 12:31N 40°39' W 074°10'2 1.6
2015-Jul-01 11:33N 40°39' W 074°08'4 4.4
2015-Jul-01 10:33N 40°40' W 074°03'0 0.1
2015-Jul-01 09:33N 40°40' W 074°02'0 0.2
2015-Jul-01 08:33N 40°40' W 074°02'0 0.2
2015-Jul-01 07:33N 40°40' W 074°02'0 0.0
2015-Jul-01 06:33N 40°40' W 074°02'0 0.0
2015-Jul-01 05:33N 40°40' W 074°02'0 0.0
2015-Jul-01 04:33N 40°40' W 074°02'0 0.1
2015-Jul-01 03:33N 40°40' W 074°03'0 0.1
2015-Jul-01 02:33N 40°40' W 074°02'0 0.0
2015-Jul-01 01:33N 40°40' W 074°02'0 0.0
2015-Jul-01 00:33N 40°40' W 074°02'0 0.0
2015-Jun-30 23:33N 40°40' W 074°02'0 0.0
2015-Jun-30 22:33N 40°40' W 074°02'1 0.7
2015-Jun-30 21:33N 40°40' W 074°03'10 9.7
2015-Jun-30 20:33N 40°31' W 073°58'9 9.1
2015-Jun-30 19:33N 40°30' W 073°46'20 9.3
2015-Jun-30 17:26N 40°33' W 073°20'8 9.1
2015-Jun-30 16:31N 40°36' W 073°10'18 9.1
2015-Jun-30 14:32N 40°42' W 072°47'9 9.4
2015-Jun-30 13:33N 40°45' W 072°36'9 9.3
2015-Jun-30 12:33N 40°48' W 072°25'9 9.3
2015-Jun-30 11:33N 40°52' W 072°13'9 9.2
2015-Jun-30 10:33N 40°56' W 072°03'9 9.0
2015-Jun-30 09:33N 41°00' W 071°52'9 9.0
2015-Jun-30 08:33N 41°04' W 071°41'9 9.3
2015-Jun-30 07:33N 41°08' W 071°30'9 9.0
2015-Jun-30 06:33N 41°12' W 071°19'9 9.0
2015-Jun-30 05:33N 41°19' W 071°12'9 8.8
2015-Jun-30 04:33N 41°25' W 071°03'9 9.1
2015-Jun-30 03:31N 41°30' W 070°52'9 9.2
2015-Jun-30 02:33N 41°35' W 070°43'49 5.7
2015-Jun-29 18:04N 42°22' W 071°03'49 1.3
2015-Jun-28 04:24N 41°35' W 070°43'6 7.4
2015-Jun-28 03:33N 41°31' W 070°49'7 6.9
2015-Jun-28 02:33N 41°28' W 070°58'7 6.8
2015-Jun-28 01:33N 41°23' W 071°04'7 6.9
2015-Jun-28 00:33N 41°18' W 071°10'8 7.6
2015-Jun-27 23:33N 41°12' W 071°16'7 7.3
2015-Jun-27 22:33N 41°08' W 071°25'7 7.3
2015-Jun-27 21:33N 41°06' W 071°34'7 7.1
2015-Jun-27 20:33N 41°03' W 071°42'7 7.1
2015-Jun-27 19:33N 41°00' W 071°51'8 7.6
2015-Jun-27 18:33N 40°57' W 072°00'7 7.2
2015-Jun-27 17:33N 40°54' W 072°09'7 7.0
2015-Jun-27 16:33N 40°51' W 072°17'7 6.9
2015-Jun-27 15:33N 40°48' W 072°25'7 7.0
2015-Jun-27 14:33N 40°46' W 072°34'7 7.3
2015-Jun-27 13:33N 40°43' W 072°43'7 7.5
2015-Jun-27 12:33N 40°40' W 072°52'8 7.7
2015-Jun-27 11:33N 40°38' W 073°02'8 7.7
2015-Jun-27 10:33N 40°35' W 073°11'8 7.9
2015-Jun-27 09:33N 40°34' W 073°21'8 7.7
2015-Jun-27 08:33N 40°32' W 073°31'8 7.6
2015-Jun-27 07:33N 40°31' W 073°41'8 7.6
2015-Jun-27 06:33N 40°29' W 073°51'7 6.8
2015-Jun-27 05:31N 40°31' W 073°60'7 7.5
2015-Jun-27 04:33N 40°38' W 074°03'2 1.9
2015-Jun-27 03:33N 40°39' W 074°05'0 0.0
2015-Jun-27 02:33N 40°39' W 074°05'0 0.0
2015-Jun-27 01:33N 40°39' W 074°05'0 0.0
2015-Jun-27 00:33N 40°39' W 074°05'0 0.0
2015-Jun-26 23:33N 40°39' W 074°05'0 0.0
2015-Jun-26 22:33N 40°39' W 074°05'0 0.0
2015-Jun-26 21:33N 40°39' W 074°05'0 0.0
2015-Jun-26 20:33N 40°39' W 074°05'0 0.0
2015-Jun-26 19:33N 40°39' W 074°05'0 0.0
2015-Jun-26 18:33N 40°39' W 074°05'0 0.0
2015-Jun-26 17:33N 40°39' W 074°05'0 0.0
2015-Jun-26 16:33N 40°39' W 074°05'0 0.0
2015-Jun-26 15:33N 40°39' W 074°05'0 0.0
2015-Jun-26 14:33N 40°39' W 074°05'0 0.0
2015-Jun-26 13:33N 40°39' W 074°05'0 0.0
2015-Jun-26 12:33N 40°39' W 074°05'0 0.0
2015-Jun-26 11:33N 40°39' W 074°05'0 0.0
2015-Jun-26 10:33N 40°39' W 074°05'0 0.0
2015-Jun-26 09:33N 40°39' W 074°05'0 0.0
2015-Jun-26 08:33N 40°39' W 074°05'0 0.0
2015-Jun-26 07:33N 40°39' W 074°05'0 0.0
2015-Jun-26 06:33N 40°39' W 074°05'0 0.0
2015-Jun-26 05:33N 40°39' W 074°05'0 0.0
2015-Jun-26 04:33N 40°39' W 074°05'0 0.0
2015-Jun-26 03:33N 40°39' W 074°05'0 0.0
2015-Jun-26 02:33N 40°39' W 074°05'0 0.0
2015-Jun-26 01:33N 40°39' W 074°05'0 0.0
2015-Jun-26 00:33N 40°39' W 074°05'0 0.0
2015-Jun-25 23:33N 40°39' W 074°05'0 0.0
2015-Jun-25 22:33N 40°39' W 074°05'0 0.0
2015-Jun-25 21:33N 40°39' W 074°05'4 3.7
2015-Jun-25 20:33N 40°38' W 074°10'0 0.0
2015-Jun-25 19:33N 40°38' W 074°10'0 0.0
2015-Jun-25 18:33N 40°38' W 074°10'0 0.0
2015-Jun-25 17:33N 40°38' W 074°10'1 1.0
2015-Jun-25 16:33N 40°39' W 074°09'3 2.7
2015-Jun-25 15:33N 40°39' W 074°05'0 0.0
2015-Jun-25 14:33N 40°39' W 074°05'0 0.0
2015-Jun-25 13:33N 40°39' W 074°05'0 0.0
2015-Jun-25 12:33N 40°39' W 074°05'0 0.0
2015-Jun-25 11:33N 40°39' W 074°05'0 0.0
2015-Jun-25 10:33N 40°39' W 074°05'0 0.0
2015-Jun-25 09:33N 40°39' W 074°05'0 0.0
2015-Jun-25 08:33N 40°39' W 074°05'0 0.0
2015-Jun-25 07:33N 40°39' W 074°05'0 0.0
2015-Jun-25 06:33N 40°39' W 074°05'0 0.0
2015-Jun-25 05:33N 40°39' W 074°05'0 0.0
2015-Jun-25 04:33N 40°39' W 074°05'0 0.0
2015-Jun-25 03:33N 40°39' W 074°05'0 0.0
2015-Jun-25 02:33N 40°39' W 074°05'4 3.7
2015-Jun-25 01:33N 40°36' W 074°02'6 5.9
2015-Jun-25 00:33N 40°31' W 073°59'31 7.6
2015-Jun-24 20:25N 40°34' W 073°18'8 8.3
2015-Jun-24 19:26N 40°36' W 073°07'7 8.3
2015-Jun-24 18:32N 40°39' W 072°58'17 8.7
2015-Jun-24 16:33N 40°45' W 072°37'9 8.8
2015-Jun-24 15:33N 40°48' W 072°26'9 8.9
2015-Jun-24 14:33N 40°52' W 072°16'  
Track history (hours):
 
Tides and Currents Weather Stations Pressure Air Temp Water Temp Dewpoint Dewpoint Depression Visibility Wind Speed Wind Dir Waves Ship Positions

Mckinley Sea

Owner: Kirby Offshore Marine, LLC, Staten Island, NY. More information available from US FCC via Universal Licensing System and Coast Guard Vessel Documentation Center.

Last reported at 2015-Jul-04 14:06 UTC. Time now 2015-Jul-05 15:05 UTC.
Position N 40°31' W 073°59'.

Length 46 m; draft 7 m.

Type: Towing. MMSI: 367360980.

Date/timePositionNaut miles runAvg speedWind from/ knotsBaromVisibWave heightAir tempDewpointWater temp
2015-Jul-04 14:06N 40°31' W 073°59'3 5.5
2015-Jul-04 13:33N 40°33' W 074°02'6 6.1
2015-Jul-04 12:33N 40°39' W 074°04'5 5.4
2015-Jul-04 11:33N 40°39' W 074°11'6 5.6
2015-Jul-04 10:33N 40°33' W 074°14'1 1.0
2015-Jul-04 09:33N 40°33' W 074°15'0 0.0
2015-Jul-04 06:33N 40°33' W 074°15'0 0.0
2015-Jul-04 05:33N 40°33' W 074°15'0 0.0
2015-Jul-04 04:29N 40°33' W 074°15'0 0.0
2015-Jul-04 03:31N 40°33' W 074°15'0 0.0
2015-Jul-03 21:24N 40°33' W 074°15'0 0.0
2015-Jul-03 20:28N 40°33' W 074°15'0 0.0
2015-Jul-03 13:15N 40°33' W 074°15'0 0.0
2015-Jul-03 12:29N 40°33' W 074°15'3 3.0
2015-Jul-03 11:24N 40°29' W 074°15'6 2.0
2015-Jul-03 08:33N 40°29' W 074°07'0 0.1
2015-Jul-03 07:33N 40°29' W 074°07'0 0.0
2015-Jul-03 06:28N 40°29' W 074°07'0 0.0
2015-Jul-03 02:33N 40°29' W 074°07'0 0.1
2015-Jul-03 00:26N 40°29' W 074°08'0 0.0
2015-Jul-02 23:33N 40°29' W 074°08'0 0.0
2015-Jul-02 22:33N 40°29' W 074°08'2 1.9
2015-Jul-02 21:27N 40°30' W 074°10'4 1.9
2015-Jul-02 19:14N 40°30' W 074°15'0 0.0
2015-Jul-02 18:33N 40°30' W 074°15'0 0.0
2015-Jul-02 17:31N 40°30' W 074°15'0 0.1
2015-Jul-02 16:24N 40°30' W 074°15'7 7.3
2015-Jul-02 15:26N 40°29' W 074°06'5 5.9
2015-Jul-02 14:33N 40°34' W 074°02'7 6.6
2015-Jul-02 13:33N 40°40' W 074°02'0 0.0
2015-Jul-02 12:33N 40°40' W 074°02'0 0.2
2015-Jul-02 11:33N 40°40' W 074°02'0 0.1
2015-Jul-02 10:33N 40°40' W 074°02'0 0.0
2015-Jul-02 09:33N 40°40' W 074°02'0 0.0
2015-Jul-02 08:33N 40°40' W 074°02'0 0.0
2015-Jul-02 07:33N 40°40' W 074°02'0 0.0
2015-Jul-02 06:33N 40°40' W 074°02'0 0.0
2015-Jul-02 05:33N 40°40' W 074°02'0 0.0
2015-Jul-02 04:33N 40°40' W 074°02'0 0.0
2015-Jul-02 03:33N 40°40' W 074°02'0 0.2
2015-Jul-02 02:34N 40°40' W 074°02'0 0.0
2015-Jul-02 01:33N 40°40' W 074°02'0 0.1
2015-Jul-02 00:33N 40°40' W 074°02'0 0.0
2015-Jul-01 23:33N 40°40' W 074°02'0 0.0
2015-Jul-01 22:33N 40°40' W 074°02'0 0.1
2015-Jul-01 21:33N 40°40' W 074°02'0 0.1
2015-Jul-01 20:33N 40°40' W 074°02'0 0.1
2015-Jul-01 19:33N 40°40' W 074°02'0 0.0
2015-Jul-01 18:33N 40°40' W 074°02'5 4.9
2015-Jul-01 17:33N 40°38' W 074°09'1 1.0
2015-Jul-01 16:33N 40°38' W 074°10'0 0.0
2015-Jul-01 15:33N 40°38' W 074°10'0 0.1
2015-Jul-01 14:33N 40°39' W 074°10'0 0.1
2015-Jul-01 13:33N 40°39' W 074°10'0 0.0
2015-Jul-01 12:31N 40°39' W 074°10'2 1.6
2015-Jul-01 11:33N 40°39' W 074°08'4 4.4
2015-Jul-01 10:33N 40°40' W 074°03'0 0.1
2015-Jul-01 09:33N 40°40' W 074°02'0 0.2
2015-Jul-01 08:33N 40°40' W 074°02'0 0.2
2015-Jul-01 07:33N 40°40' W 074°02'0 0.0
2015-Jul-01 06:33N 40°40' W 074°02'0 0.0
2015-Jul-01 05:33N 40°40' W 074°02'0 0.0
2015-Jul-01 04:33N 40°40' W 074°02'0 0.1
2015-Jul-01 03:33N 40°40' W 074°03'0 0.1
2015-Jul-01 02:33N 40°40' W 074°02'0 0.0
2015-Jul-01 01:33N 40°40' W 074°02'0 0.0
2015-Jul-01 00:33N 40°40' W 074°02'0 0.0
2015-Jun-30 23:33N 40°40' W 074°02'0 0.0
2015-Jun-30 22:33N 40°40' W 074°02'1 0.7
2015-Jun-30 21:33N 40°40' W 074°03'10 9.7
2015-Jun-30 20:33N 40°31' W 073°58'9 9.1
2015-Jun-30 19:33N 40°30' W 073°46'20 9.3
2015-Jun-30 17:26N 40°33' W 073°20'8 9.1
2015-Jun-30 16:31N 40°36' W 073°10'18 9.1
2015-Jun-30 14:32N 40°42' W 072°47'9 9.4
2015-Jun-30 13:33N 40°45' W 072°36'9 9.3
2015-Jun-30 12:33N 40°48' W 072°25'9 9.3
2015-Jun-30 11:33N 40°52' W 072°13'9 9.2
2015-Jun-30 10:33N 40°56' W 072°03'9 9.0
2015-Jun-30 09:33N 41°00' W 071°52'9 9.0
2015-Jun-30 08:33N 41°04' W 071°41'9 9.3
2015-Jun-30 07:33N 41°08' W 071°30'9 9.0
2015-Jun-30 06:33N 41°12' W 071°19'9 9.0
2015-Jun-30 05:33N 41°19' W 071°12'9 8.8
2015-Jun-30 04:33N 41°25' W 071°03'9 9.1
2015-Jun-30 03:31N 41°30' W 070°52'9 9.2
2015-Jun-30 02:33N 41°35' W 070°43'49 5.7
2015-Jun-29 18:04N 42°22' W 071°03'49 1.3
2015-Jun-28 04:24N 41°35' W 070°43'6 7.4
2015-Jun-28 03:33N 41°31' W 070°49'7 6.9
2015-Jun-28 02:33N 41°28' W 070°58'7 6.8
2015-Jun-28 01:33N 41°23' W 071°04'7 6.9
2015-Jun-28 00:33N 41°18' W 071°10'8 7.6
2015-Jun-27 23:33N 41°12' W 071°16'7 7.3
2015-Jun-27 22:33N 41°08' W 071°25'7 7.3
2015-Jun-27 21:33N 41°06' W 071°34'7 7.1
2015-Jun-27 20:33N 41°03' W 071°42'7 7.1
2015-Jun-27 19:33N 41°00' W 071°51'8 7.6
2015-Jun-27 18:33N 40°57' W 072°00'7 7.2
2015-Jun-27 17:33N 40°54' W 072°09'7 7.0
2015-Jun-27 16:33N 40°51' W 072°17'7 6.9
2015-Jun-27 15:33N 40°48' W 072°25'7 7.0
2015-Jun-27 14:33N 40°46' W 072°34'7 7.3
2015-Jun-27 13:33N 40°43' W 072°43'7 7.5
2015-Jun-27 12:33N 40°40' W 072°52'8 7.7
2015-Jun-27 11:33N 40°38' W 073°02'8 7.7
2015-Jun-27 10:33N 40°35' W 073°11'8 7.9
2015-Jun-27 09:33N 40°34' W 073°21'8 7.7
2015-Jun-27 08:33N 40°32' W 073°31'8 7.6
2015-Jun-27 07:33N 40°31' W 073°41'8 7.6
2015-Jun-27 06:33N 40°29' W 073°51'7 6.8
2015-Jun-27 05:31N 40°31' W 073°60'7 7.5
2015-Jun-27 04:33N 40°38' W 074°03'2 1.9
2015-Jun-27 03:33N 40°39' W 074°05'0 0.0
2015-Jun-27 02:33N 40°39' W 074°05'0 0.0
2015-Jun-27 01:33N 40°39' W 074°05'0 0.0
2015-Jun-27 00:33N 40°39' W 074°05'0 0.0
2015-Jun-26 23:33N 40°39' W 074°05'0 0.0
2015-Jun-26 22:33N 40°39' W 074°05'0 0.0
2015-Jun-26 21:33N 40°39' W 074°05'0 0.0
2015-Jun-26 20:33N 40°39' W 074°05'0 0.0
2015-Jun-26 19:33N 40°39' W 074°05'0 0.0
2015-Jun-26 18:33N 40°39' W 074°05'0 0.0
2015-Jun-26 17:33N 40°39' W 074°05'0 0.0
2015-Jun-26 16:33N 40°39' W 074°05'0 0.0
2015-Jun-26 15:33N 40°39' W 074°05'0 0.0
2015-Jun-26 14:33N 40°39' W 074°05'0 0.0
2015-Jun-26 13:33N 40°39' W 074°05'0 0.0
2015-Jun-26 12:33N 40°39' W 074°05'0 0.0
2015-Jun-26 11:33N 40°39' W 074°05'0 0.0
2015-Jun-26 10:33N 40°39' W 074°05'0 0.0
2015-Jun-26 09:33N 40°39' W 074°05'0 0.0
2015-Jun-26 08:33N 40°39' W 074°05'0 0.0
2015-Jun-26 07:33N 40°39' W 074°05'0 0.0
2015-Jun-26 06:33N 40°39' W 074°05'0 0.0
2015-Jun-26 05:33N 40°39' W 074°05'0 0.0
2015-Jun-26 04:33N 40°39' W 074°05'0 0.0
2015-Jun-26 03:33N 40°39' W 074°05'0 0.0
2015-Jun-26 02:33N 40°39' W 074°05'0 0.0
2015-Jun-26 01:33N 40°39' W 074°05'0 0.0
2015-Jun-26 00:33N 40°39' W 074°05'0 0.0
2015-Jun-25 23:33N 40°39' W 074°05'0 0.0
2015-Jun-25 22:33N 40°39' W 074°05'0 0.0
2015-Jun-25 21:33N 40°39' W 074°05'4 3.7
2015-Jun-25 20:33N 40°38' W 074°10'0 0.0
2015-Jun-25 19:33N 40°38' W 074°10'0 0.0
2015-Jun-25 18:33N 40°38' W 074°10'0 0.0
2015-Jun-25 17:33N 40°38' W 074°10'1 1.0
2015-Jun-25 16:33N 40°39' W 074°09'3 2.7
2015-Jun-25 15:33N 40°39' W 074°05'0 0.0
2015-Jun-25 14:33N 40°39' W 074°05'0 0.0
2015-Jun-25 13:33N 40°39' W 074°05'0 0.0
2015-Jun-25 12:33N 40°39' W 074°05'0 0.0
2015-Jun-25 11:33N 40°39' W 074°05'0 0.0
2015-Jun-25 10:33N 40°39' W 074°05'0 0.0
2015-Jun-25 09:33N 40°39' W 074°05'0 0.0
2015-Jun-25 08:33N 40°39' W 074°05'0 0.0
2015-Jun-25 07:33N 40°39' W 074°05'0 0.0
2015-Jun-25 06:33N 40°39' W 074°05'0 0.0
2015-Jun-25 05:33N 40°39' W 074°05'0 0.0
2015-Jun-25 04:33N 40°39' W 074°05'0 0.0
2015-Jun-25 03:33N 40°39' W 074°05'0 0.0
2015-Jun-25 02:33N 40°39' W 074°05'4 3.7
2015-Jun-25 01:33N 40°36' W 074°02'6 5.9
2015-Jun-25 00:33N 40°31' W 073°59'31 7.6
2015-Jun-24 20:25N 40°34' W 073°18'8 8.3
2015-Jun-24 19:26N 40°36' W 073°07'7 8.3
2015-Jun-24 18:32N 40°39' W 072°58'17 8.7
2015-Jun-24 16:33N 40°45' W 072°37'9 8.8
2015-Jun-24 15:33N 40°48' W 072°26'9 8.9
2015-Jun-24 14:33N 40°52' W 072°16'  

Dump ship's entire track history